createdAt,value
2019-01-25T00:00:54.538Z,97516.75
2019-01-25T00:03:43.444Z,97516.58
2019-01-25T00:06:32.227Z,97405.24
2019-01-25T00:09:21.041Z,97333.61
2019-01-25T00:12:09.865Z,97400.61
2019-01-25T00:14:58.674Z,97524.80
2019-01-25T00:17:47.492Z,97533.13
2019-01-25T00:20:36.299Z,97515.52
2019-01-25T00:23:17.869Z,97208.97
2019-01-25T00:26:06.740Z,97515.93
2019-01-25T00:28:55.631Z,97520.14
2019-01-25T00:31:44.438Z,97529.77
2019-01-25T00:34:33.254Z,97532.00
2019-01-25T00:37:22.050Z,97539.79
2019-01-25T00:40:31.774Z,97341.45
2019-01-25T00:43:20.578Z,97549.24
2019-01-25T00:46:09.435Z,97427.39
2019-01-25T00:48:58.183Z,97557.73
2019-01-25T00:51:47.000Z,97253.22
2019-01-25T00:54:35.801Z,97555.39
2019-01-25T00:57:24.616Z,97273.28
2019-01-25T01:00:32.730Z,97254.99
2019-01-25T01:03:21.543Z,97455.41
2019-01-25T01:06:10.339Z,97554.06
2019-01-25T01:08:59.158Z,97563.27
2019-01-25T01:11:47.952Z,97270.48
2019-01-25T01:14:36.820Z,97569.66
2019-01-25T01:17:17.979Z,97565.45
2019-01-25T01:19:59.915Z,97566.99
2019-01-25T01:29:11.467Z,97302.17
2019-01-25T01:32:00.274Z,97237.89
2019-01-25T01:34:49.071Z,97583.50
2019-01-25T01:37:37.893Z,97244.23
2019-01-25T01:40:26.688Z,97558.58
2019-01-25T01:43:15.509Z,97466.94
2019-01-25T01:49:18.993Z,97485.09
2019-01-25T01:52:07.793Z,97253.92
2019-01-25T01:54:56.607Z,97564.09
2019-01-25T01:57:45.410Z,97278.11
2019-01-25T02:00:34.224Z,97571.91
2019-01-25T02:03:23.022Z,97563.59
2019-01-25T02:06:11.850Z,97562.03
2019-01-25T02:09:00.636Z,97275.20
2019-01-25T02:11:49.456Z,97566.72
2019-01-25T02:14:38.259Z,97465.23
2019-01-25T02:17:27.140Z,97556.94
2019-01-25T02:20:10.607Z,97227.98
2019-01-25T02:22:59.554Z,97526.51
2019-01-25T02:26:07.373Z,97549.78
2019-01-25T02:28:56.185Z,97557.02
2019-01-25T02:31:44.988Z,97559.41
2019-01-25T02:34:33.809Z,97563.73
2019-01-25T02:37:22.613Z,97558.78
2019-01-25T02:40:38.640Z,97270.88
2019-01-25T02:43:22.863Z,97559.63
2019-01-25T02:46:11.711Z,97465.52
2019-01-25T02:49:00.507Z,97566.72
2019-01-25T02:51:49.321Z,97566.54
2019-01-25T02:54:38.134Z,97565.06
2019-01-25T02:57:26.957Z,97569.13
2019-01-25T03:00:36.687Z,97273.42
2019-01-25T03:03:25.489Z,97555.73
2019-01-25T03:06:14.300Z,97552.28
2019-01-25T03:12:12.497Z,97543.20
2019-01-25T03:15:01.338Z,97543.65
2019-01-25T03:18:09.354Z,97551.59
2019-01-25T03:20:51.444Z,97542.47
2019-01-25T03:23:40.266Z,97553.48
2019-01-25T03:26:29.065Z,97552.15
2019-01-25T03:29:17.874Z,97252.26
2019-01-25T03:32:06.669Z,97550.51
2019-01-25T03:34:55.483Z,97558.09
2019-01-25T03:37:44.307Z,97337.62
2019-01-25T03:40:33.092Z,97554.09
2019-01-25T03:43:21.909Z,97559.49
2019-01-25T03:46:10.707Z,97565.44
2019-01-25T03:48:59.542Z,97567.98
2019-01-25T03:51:48.339Z,97565.98
2019-01-25T03:54:37.162Z,97556.94
2019-01-25T03:57:25.979Z,97563.97
2019-01-25T04:00:35.696Z,97559.79
2019-01-25T04:03:24.493Z,97219.40
2019-01-25T04:06:13.305Z,97570.12
2019-01-25T04:09:02.109Z,97569.69
2019-01-25T04:14:45.271Z,97572.17
2019-01-25T04:17:53.360Z,97578.91
2019-01-25T04:20:35.224Z,97573.92
2019-01-25T04:23:24.040Z,97290.50
2019-01-25T04:26:12.882Z,97403.34
2019-01-25T04:29:01.731Z,97571.24
2019-01-25T04:31:50.533Z,97576.38
2019-01-25T04:34:39.348Z,97258.25
2019-01-25T04:37:28.151Z,97565.99
2019-01-25T04:40:37.880Z,97559.86
2019-01-25T04:43:26.681Z,97556.99
2019-01-25T04:46:15.492Z,97564.63
2019-01-25T04:49:04.289Z,97290.10
2019-01-25T04:51:53.100Z,97566.73
2019-01-25T04:57:49.684Z,97564.33
2019-01-25T05:00:38.483Z,97570.70
2019-01-25T05:06:36.683Z,97253.80
2019-01-25T05:09:25.478Z,97578.02
2019-01-25T05:12:14.296Z,97576.48
2019-01-25T05:15:03.159Z,97579.66
2019-01-25T05:18:12.891Z,97444.44
2019-01-25T05:20:54.180Z,97264.71
2019-01-25T05:23:42.996Z,97574.60
2019-01-25T05:26:31.795Z,97289.27
2019-01-25T05:32:35.640Z,97422.58
2019-01-25T05:35:24.432Z,97577.19
2019-01-25T05:38:13.251Z,97312.50
2019-01-25T05:41:02.112Z,97602.88
2019-01-25T05:43:50.941Z,97610.08
2019-01-25T05:46:39.979Z,97598.46
2019-01-25T05:49:28.796Z,97599.39
2019-01-25T05:55:46.277Z,97517.50
2019-01-25T05:58:35.082Z,97602.63
2019-01-25T06:01:23.906Z,97627.00
2019-01-25T06:04:12.706Z,97627.66
2019-01-25T06:07:01.803Z,97629.63
2019-01-25T06:09:50.581Z,97633.59
2019-01-25T06:12:39.399Z,97638.95
2019-01-25T06:15:49.104Z,97375.36
2019-01-25T06:18:37.919Z,97648.00
2019-01-25T06:21:19.461Z,97643.14
2019-01-25T06:24:08.274Z,97378.66
2019-01-25T06:26:57.067Z,97656.71
2019-01-25T06:29:45.879Z,97574.73
2019-01-25T06:32:34.677Z,97654.86
2019-01-25T06:35:23.494Z,97378.04
2019-01-25T06:38:12.305Z,97649.27
2019-01-25T06:41:01.105Z,97466.97
2019-01-25T06:43:49.923Z,97645.91
2019-01-25T06:46:38.719Z,97310.61
2019-01-25T06:49:27.543Z,97644.41
2019-01-25T06:52:16.336Z,97342.95
2019-01-25T06:55:26.066Z,97653.91
2019-01-25T06:58:33.887Z,97649.98
2019-01-25T07:04:21.729Z,97344.92
2019-01-25T07:13:35.402Z,97651.86
2019-01-25T07:16:24.201Z,97652.37
2019-01-25T07:19:13.008Z,97657.29
2019-01-25T07:22:01.804Z,97664.38
2019-01-25T07:24:56.923Z,97665.91
2019-01-25T07:27:41.197Z,97385.31
2019-01-25T07:30:30.078Z,97672.69
2019-01-25T07:33:19.183Z,97683.42
2019-01-25T07:36:08.070Z,97689.05
2019-01-25T07:38:56.865Z,97684.30
2019-01-25T07:41:45.703Z,97680.30
2019-01-25T07:44:34.517Z,97673.09
2019-01-25T07:47:23.358Z,97664.39
2019-01-25T07:53:40.978Z,97667.97
2019-01-25T07:56:29.789Z,97669.53
2019-01-25T07:59:18.597Z,97672.82
2019-01-25T08:02:07.393Z,97676.03
2019-01-25T08:04:56.258Z,97673.38
2019-01-25T08:07:45.026Z,97528.41
2019-01-25T08:10:35.574Z,97658.20
2019-01-25T08:13:24.612Z,97338.77
2019-01-25T08:16:14.965Z,97369.02
2019-01-25T08:22:24.838Z,97655.48
2019-01-25T08:25:13.706Z,97394.33
2019-01-25T08:28:02.543Z,97660.20
2019-01-25T08:30:51.326Z,97662.03
2019-01-25T08:33:41.864Z,97657.71
2019-01-25T08:36:30.686Z,97619.77
2019-01-25T08:39:19.506Z,97658.08
2019-01-25T08:42:15.284Z,97398.86
2019-01-25T08:44:59.740Z,97669.98
2019-01-25T08:47:49.700Z,97669.67
2019-01-25T08:50:38.501Z,97675.08
2019-01-25T08:53:27.344Z,97398.05
2019-01-25T08:56:16.128Z,97675.45
2019-01-25T08:59:05.238Z,97672.11
2019-01-25T09:01:54.088Z,97685.33
2019-01-25T09:04:42.913Z,97681.47
2019-01-25T09:07:31.717Z,97519.33
2019-01-25T09:10:41.447Z,97685.42
2019-01-25T09:13:30.259Z,97516.14
2019-01-25T09:19:13.268Z,97683.07
2019-01-25T09:22:02.082Z,97679.70
2019-01-25T09:24:43.476Z,97527.02
2019-01-25T09:27:32.382Z,97680.20
2019-01-25T09:30:42.082Z,97677.49
2019-01-25T09:33:30.897Z,97679.95
2019-01-25T09:36:19.702Z,97675.58
2019-01-25T09:42:23.189Z,97676.17
2019-01-25T09:48:27.387Z,97675.06
2019-01-25T09:51:16.271Z,97674.79
2019-01-25T09:54:25.982Z,97545.33
2019-01-25T10:01:08.528Z,97682.95
2019-01-25T10:03:57.354Z,97670.75
2019-01-25T10:06:46.158Z,97380.67
2019-01-25T10:09:34.970Z,97670.67
2019-01-25T10:12:23.776Z,97381.91
2019-01-25T10:15:31.907Z,97675.73
2019-01-25T10:18:24.660Z,97651.44
2019-01-25T10:21:11.234Z,97682.83
2019-01-25T10:24:00.038Z,97679.05
2019-01-25T10:26:48.855Z,97669.43
2019-01-25T10:29:37.653Z,97668.41
2019-01-25T10:32:26.502Z,97676.22
2019-01-25T10:35:15.373Z,97674.93
2019-01-25T10:38:04.846Z,97675.83
2019-01-25T10:40:54.729Z,97680.23
2019-01-25T10:43:43.525Z,97382.83
2019-01-25T10:46:32.345Z,97666.69
2019-01-25T10:52:15.435Z,97660.70
2019-01-25T10:55:25.151Z,97655.52
2019-01-25T10:58:14.041Z,97615.25
2019-01-25T11:01:02.841Z,97652.43
2019-01-25T11:03:51.661Z,97367.20
2019-01-25T11:06:40.455Z,97645.37
2019-01-25T11:09:29.269Z,97640.63
2019-01-25T11:12:10.782Z,97631.90
2019-01-25T11:15:01.329Z,97624.45
2019-01-25T11:18:09.273Z,97623.77
2019-01-25T11:20:58.088Z,97620.56
2019-01-25T11:23:46.890Z,97457.14
2019-01-25T11:26:35.714Z,97626.48
2019-01-25T11:29:24.501Z,97463.37
2019-01-25T11:32:13.674Z,97629.06
2019-01-25T11:35:02.477Z,97604.25
2019-01-25T11:38:10.453Z,97438.70
2019-01-25T11:40:59.254Z,97628.01
2019-01-25T11:43:48.062Z,97627.97
2019-01-25T11:46:36.990Z,97624.99
2019-01-25T11:49:25.895Z,97348.63
2019-01-25T11:52:14.704Z,97610.35
2019-01-25T11:58:18.772Z,97609.25
2019-01-25T12:01:07.836Z,97602.49
2019-01-25T12:03:56.643Z,97428.22
2019-01-25T12:06:45.434Z,97589.70
2019-01-25T12:09:34.239Z,97590.25
2019-01-25T12:12:16.311Z,97333.39
2019-01-25T12:15:26.037Z,97584.98
2019-01-25T12:18:14.826Z,97592.05
2019-01-25T12:21:03.630Z,97329.88
2019-01-25T12:23:52.502Z,97594.97
2019-01-25T12:29:35.445Z,97594.31
2019-01-25T12:32:24.231Z,97600.17
2019-01-25T12:35:32.887Z,97605.48
2019-01-25T12:38:21.692Z,97607.70
2019-01-25T12:41:10.485Z,97600.53
2019-01-25T12:43:59.287Z,97601.39
2019-01-25T12:46:48.091Z,97339.61
2019-01-25T12:49:36.901Z,97611.39
2019-01-25T12:52:25.721Z,97314.74
2019-01-25T12:55:14.503Z,97601.31
2019-01-25T13:03:57.579Z,97433.74
2019-01-25T13:06:46.373Z,97589.58
2019-01-25T13:09:35.182Z,97596.66
2019-01-25T13:12:16.944Z,97418.64
2019-01-25T13:15:26.642Z,97587.89
2019-01-25T13:18:15.454Z,97293.86
2019-01-25T13:21:04.314Z,97592.58
2019-01-25T13:23:53.218Z,97598.22
2019-01-25T13:26:42.018Z,97599.27
2019-01-25T13:29:30.823Z,97585.37
2019-01-25T13:32:19.773Z,97418.45
2019-01-25T13:35:10.000Z,97576.09
2019-01-25T13:37:59.241Z,97569.63
2019-01-25T13:40:48.042Z,97570.63
2019-01-25T13:43:39.149Z,97565.93
2019-01-25T13:46:27.362Z,97495.99
2019-01-25T13:49:16.147Z,97374.50
2019-01-25T13:52:05.029Z,97573.10
2019-01-25T13:54:53.818Z,97571.61
2019-01-25T13:58:01.718Z,97565.36
2019-01-25T14:00:50.501Z,97562.07
2019-01-25T14:03:32.095Z,97553.91
2019-01-25T14:06:20.881Z,97563.19
2019-01-25T14:09:09.873Z,97561.87
2019-01-25T14:11:58.663Z,97552.66
2019-01-25T14:14:48.991Z,97562.86
2019-01-25T14:17:37.997Z,97558.48
2019-01-25T14:20:46.125Z,97466.08
2019-01-25T14:23:34.918Z,97558.77
2019-01-25T14:26:23.727Z,97563.45
2019-01-25T14:29:12.517Z,97564.19
2019-01-25T14:32:01.343Z,97557.96
2019-01-25T14:34:50.130Z,97548.47
2019-01-25T14:37:38.944Z,97540.92
2019-01-25T14:40:27.826Z,97536.95
2019-01-25T14:43:16.619Z,97551.06
2019-01-25T14:46:05.599Z,97560.19
2019-01-25T14:48:54.381Z,97559.55
2019-01-25T14:51:43.191Z,97519.94
2019-01-25T14:54:31.980Z,97540.89
2019-01-25T14:57:21.663Z,97541.72
2019-01-25T15:03:19.840Z,97527.47
2019-01-25T15:06:27.659Z,97528.42
2019-01-25T15:09:16.832Z,97523.14
2019-01-25T15:12:25.363Z,97482.12
2019-01-25T15:15:35.078Z,97390.42
2019-01-25T15:18:23.889Z,97512.65
2019-01-25T15:21:12.669Z,97227.33
2019-01-25T15:24:01.501Z,97506.21
2019-01-25T15:26:50.303Z,97500.40
2019-01-25T15:29:39.099Z,97507.20
2019-01-25T15:32:27.911Z,97514.39
2019-01-25T15:35:37.632Z,97513.02
2019-01-25T15:38:26.469Z,97509.48
2019-01-25T15:41:15.447Z,97518.28
2019-01-25T15:47:32.746Z,97523.87
2019-01-25T15:50:40.911Z,97530.31
2019-01-25T15:53:29.753Z,97369.64
2019-01-25T15:56:18.684Z,97515.44
2019-01-25T15:59:00.871Z,97511.44
2019-01-25T16:01:49.729Z,97530.17
2019-01-25T16:04:38.609Z,97506.31
2019-01-25T16:07:27.452Z,97506.78
2019-01-25T16:10:37.225Z,97251.14
2019-01-25T16:13:26.045Z,97367.70
2019-01-25T16:16:14.968Z,97322.64
2019-01-25T16:19:03.816Z,97514.75
2019-01-25T16:24:46.804Z,97518.51
2019-01-25T16:27:35.769Z,97525.08
2019-01-25T16:30:43.946Z,97530.87
2019-01-25T16:33:32.827Z,97520.52
2019-01-25T16:36:21.655Z,97520.28
2019-01-25T16:39:10.533Z,97516.18
2019-01-25T16:41:59.355Z,97512.44
2019-01-25T16:44:48.235Z,97515.59
2019-01-25T16:50:44.787Z,97524.63
2019-01-25T16:53:33.626Z,97528.12
2019-01-25T16:56:15.418Z,97529.49
2019-01-25T17:02:32.642Z,97523.77
2019-01-25T17:05:21.502Z,97517.66
2019-01-25T17:08:10.386Z,97508.31
2019-01-25T17:10:59.178Z,97500.79
2019-01-25T17:13:48.062Z,97421.20
2019-01-25T17:19:44.610Z,97481.64
2019-01-25T17:22:33.409Z,97478.16
2019-01-25T17:25:22.497Z,97482.43
2019-01-25T17:28:11.280Z,97464.91
2019-01-25T17:31:00.082Z,97247.06
2019-01-25T17:33:48.877Z,97489.91
2019-01-25T17:36:37.694Z,97488.66
2019-01-25T17:39:27.505Z,97487.06
2019-01-25T17:42:17.014Z,97365.23
2019-01-25T17:45:26.728Z,97481.48
2019-01-25T17:48:15.527Z,97474.45
2019-01-25T17:51:04.310Z,97325.15
2019-01-25T17:53:53.255Z,97467.08
2019-01-25T17:56:34.686Z,97459.69
2019-01-25T17:59:23.501Z,97458.38
2019-01-25T18:02:12.403Z,97202.50
2019-01-25T18:05:01.183Z,97465.64
2019-01-25T18:07:50.001Z,97464.22
2019-01-25T18:10:38.802Z,97459.63
2019-01-25T18:13:28.689Z,97459.73
2019-01-25T18:16:37.149Z,97460.47
2019-01-25T18:19:26.056Z,97457.05
2019-01-25T18:22:14.917Z,97183.63
2019-01-25T18:28:39.488Z,97437.59
2019-01-25T18:31:49.213Z,97434.54
2019-01-25T18:34:38.065Z,97420.98
2019-01-25T18:37:26.883Z,97332.66
2019-01-25T18:40:15.688Z,97429.66
2019-01-25T18:43:23.966Z,97432.23
2019-01-25T18:46:12.778Z,97431.44
2019-01-25T18:49:01.562Z,97430.33
2019-01-25T18:51:50.370Z,97429.75
2019-01-25T18:54:39.176Z,97171.41
2019-01-25T18:57:21.331Z,97428.90
2019-01-25T19:00:31.049Z,97323.56
2019-01-25T19:03:19.849Z,97408.73
2019-01-25T19:06:08.683Z,97402.34
2019-01-25T19:08:57.541Z,97399.97
2019-01-25T19:11:46.360Z,97392.53
2019-01-25T19:14:35.150Z,97386.42
2019-01-25T19:17:24.013Z,97135.87
2019-01-25T19:23:41.541Z,97368.81
2019-01-25T19:26:30.352Z,97367.34
2019-01-25T19:29:19.153Z,97359.39
2019-01-25T19:32:27.370Z,97357.42
2019-01-25T19:35:16.277Z,97349.55
2019-01-25T19:41:34.147Z,97339.23
2019-01-25T19:44:42.150Z,97335.34
2019-01-25T19:50:46.135Z,97325.03
2019-01-25T19:56:23.255Z,97208.77
2019-01-25T19:59:32.617Z,97315.44
2019-01-25T20:02:56.073Z,97323.39
2019-01-25T20:08:43.387Z,97000.98
2019-01-25T20:12:06.477Z,97311.12
2019-01-25T20:15:03.553Z,97313.61
2019-01-25T20:18:28.381Z,97316.88
2019-01-25T20:24:52.192Z,97310.33
2019-01-25T20:31:33.456Z,97057.62
2019-01-25T20:38:10.962Z,97149.42
2019-01-25T20:44:52.491Z,97300.25
2019-01-25T20:47:33.626Z,97299.73
2019-01-25T20:50:56.738Z,97054.52
2019-01-25T20:56:40.796Z,97030.05
2019-01-25T21:00:08.220Z,97286.41
2019-01-25T21:13:00.275Z,97279.35
2019-01-25T21:26:10.051Z,97264.09
2019-01-25T21:29:18.148Z,97264.47
2019-01-25T21:42:02.624Z,97245.52
2019-01-25T21:45:14.467Z,97247.89
2019-01-25T21:48:23.585Z,97173.80
2019-01-25T21:54:30.003Z,97236.17
2019-01-25T21:57:12.427Z,96941.55
2019-01-25T22:00:01.374Z,97236.52
2019-01-25T22:02:50.400Z,97229.45
2019-01-25T22:08:33.423Z,97220.16
2019-01-25T22:11:22.322Z,97094.36
2019-01-25T22:14:11.121Z,97203.09
2019-01-25T22:17:19.292Z,97205.89
2019-01-25T22:20:29.004Z,97192.46
2019-01-25T22:26:12.403Z,97189.13
2019-01-25T22:29:01.210Z,97186.47
2019-01-25T22:31:50.013Z,96969.39
2019-01-25T22:34:38.832Z,97188.64
2019-01-25T22:37:27.627Z,97193.28
2019-01-25T22:40:37.345Z,97185.70
2019-01-25T22:43:26.142Z,97191.25
2019-01-25T22:46:14.957Z,97191.69
2019-01-25T22:49:03.743Z,97177.58
2019-01-25T22:51:52.555Z,97175.57
2019-01-25T22:54:41.367Z,97148.70
2019-01-25T22:57:22.588Z,97174.28
2019-01-25T23:00:51.335Z,96941.34
2019-01-25T23:04:01.052Z,97167.13
2019-01-25T23:06:49.848Z,96903.73
2019-01-25T23:09:38.667Z,96937.13
2019-01-25T23:12:27.465Z,96885.38
2019-01-25T23:15:16.548Z,97171.48
2019-01-25T23:18:05.505Z,97170.97
2019-01-25T23:20:54.415Z,97160.45
2019-01-25T23:23:43.221Z,97156.68
2019-01-25T23:26:32.038Z,97161.75
2019-01-25T23:29:20.843Z,97149.52
2019-01-25T23:32:09.649Z,97140.20
2019-01-25T23:34:58.451Z,97146.16
2019-01-25T23:37:47.260Z,97063.94
2019-01-25T23:40:36.049Z,97137.71
2019-01-25T23:43:24.857Z,97149.12
2019-01-25T23:46:14.000Z,96956.31
2019-01-25T23:49:04.260Z,97141.08
2019-01-25T23:51:53.047Z,97035.59
2019-01-25T23:54:41.857Z,97134.80
2019-01-25T23:57:23.649Z,97137.81
